sensor_id;sensor_type;location;lat;lon;timestamp;pressure;altitude;pressure_sealevel;temperature;humidity
62544;BME280;48597;49.030;1.822;2024-02-23T00:00:48;98711.03;;;18.59;47.71
62544;BME280;48597;49.030;1.822;2024-02-23T00:03:14;98713.88;;;18.59;47.53
62544;BME280;48597;49.030;1.822;2024-02-23T00:05:39;98715.16;;;18.58;47.71
62544;BME280;48597;49.030;1.822;2024-02-23T00:08:06;98718.47;;;18.56;47.69
62544;BME280;48597;49.030;1.822;2024-02-23T00:10:32;98727.81;;;18.57;47.57
62544;BME280;48597;49.030;1.822;2024-02-23T00:12:57;98722.91;;;18.57;47.43
62544;BME280;48597;49.030;1.822;2024-02-23T00:15:23;98719.78;;;18.55;47.40
62544;BME280;48597;49.030;1.822;2024-02-23T00:17:50;98726.28;;;18.56;47.35
62544;BME280;48597;49.030;1.822;2024-02-23T00:20:15;98731.19;;;18.55;47.46
62544;BME280;48597;49.030;1.822;2024-02-23T00:22:41;98721.84;;;18.55;47.27
62544;BME280;48597;49.030;1.822;2024-02-23T00:25:06;98727.56;;;18.55;47.39
62544;BME280;48597;49.030;1.822;2024-02-23T00:27:33;98733.25;;;18.55;47.26
62544;BME280;48597;49.030;1.822;2024-02-23T00:29:58;98732.47;;;18.54;47.48
62544;BME280;48597;49.030;1.822;2024-02-23T00:32:24;98730.41;;;18.55;47.32
62544;BME280;48597;49.030;1.822;2024-02-23T00:34:49;98723.91;;;18.54;47.32
62544;BME280;48597;49.030;1.822;2024-02-23T00:37:14;98725.97;;;18.54;47.34
62544;BME280;48597;49.030;1.822;2024-02-23T00:39:40;98723.13;;;18.54;47.28
62544;BME280;48597;49.030;1.822;2024-02-23T00:42:06;98722.81;;;18.52;47.25
62544;BME280;48597;49.030;1.822;2024-02-23T00:44:31;98727.75;;;18.51;47.17
62544;BME280;48597;49.030;1.822;2024-02-23T00:46:57;98713.47;;;18.51;47.13
62544;BME280;48597;49.030;1.822;2024-02-23T00:49:26;98715.53;;;18.51;46.94
62544;BME280;48597;49.030;1.822;2024-02-23T00:51:52;98717.59;;;18.50;47.08
62544;BME280;48597;49.030;1.822;2024-02-23T00:54:17;98728.22;;;18.50;47.09
62544;BME280;48597;49.030;1.822;2024-02-23T00:56:42;98725.38;;;18.50;47.17
62544;BME280;48597;49.030;1.822;2024-02-23T00:59:08;98717.31;;;18.48;47.15
62544;BME280;48597;49.030;1.822;2024-02-23T01:01:33;98719.88;;;18.46;47.13
62544;BME280;48597;49.030;1.822;2024-02-23T01:03:58;98721.94;;;18.46;46.97
62544;BME280;48597;49.030;1.822;2024-02-23T01:06:24;98715.44;;;18.45;47.03
62544;BME280;48597;49.030;1.822;2024-02-23T01:08:50;98714.66;;;18.45;46.87
62544;BME280;48597;49.030;1.822;2024-02-23T01:11:15;98713.06;;;18.44;46.95
62544;BME280;48597;49.030;1.822;2024-02-23T01:13:41;98703.25;;;18.45;46.97
62544;BME280;48597;49.030;1.822;2024-02-23T08:05:31;98533.97;;;16.71;47.70
62544;BME280;48597;49.030;1.822;2024-02-23T08:07:56;98528.94;;;16.66;47.75
62544;BME280;48597;49.030;1.822;2024-02-23T08:10:21;98521.81;;;16.62;47.89
62544;BME280;48597;49.030;1.822;2024-02-23T08:12:47;98527.53;;;16.62;47.76
62544;BME280;48597;49.030;1.822;2024-02-23T08:15:12;98517.91;;;16.59;47.77
62544;BME280;48597;49.030;1.822;2024-02-23T08:17:37;98516.66;;;16.60;47.92
62544;BME280;48597;49.030;1.822;2024-02-23T08:20:03;98534.34;;;16.64;48.50
62544;BME280;48597;49.030;1.822;2024-02-23T08:22:29;98523.88;;;16.70;48.58
62544;BME280;48597;49.030;1.822;2024-02-23T08:24:54;98516.22;;;16.76;48.35
62544;BME280;48597;49.030;1.822;2024-02-23T08:27:20;98517.63;;;16.81;48.04
62544;BME280;48597;49.030;1.822;2024-02-23T08:29:45;98523.13;;;16.85;47.86
62544;BME280;48597;49.030;1.822;2024-02-23T08:32:10;98519.31;;;16.88;47.73
62544;BME280;48597;49.030;1.822;2024-02-23T08:34:36;98509.22;;;16.87;47.98
62544;BME280;48597;49.030;1.822;2024-02-23T08:37:01;98519.31;;;16.88;47.77
62544;BME280;48597;49.030;1.822;2024-02-23T08:39:27;98524.69;;;16.86;47.62
62544;BME280;48597;49.030;1.822;2024-02-23T08:41:52;98528.81;;;16.85;47.46
62544;BME280;48597;49.030;1.822;2024-02-23T08:44:18;98514.91;;;16.87;47.49
62544;BME280;48597;49.030;1.822;2024-02-23T08:46:43;98524.50;;;16.89;47.65
62544;BME280;48597;49.030;1.822;2024-02-23T08:49:09;98525.59;;;16.92;47.31
62544;BME280;48597;49.030;1.822;2024-02-23T08:51:34;98531.59;;;16.94;47.51
62544;BME280;48597;49.030;1.822;2024-02-23T08:53:59;98533.47;;;16.97;47.12
62544;BME280;48597;49.030;1.822;2024-02-23T08:56:29;98536.59;;;16.99;47.10
62544;BME280;48597;49.030;1.822;2024-02-23T08:58:55;98543.38;;;17.01;47.22
62544;BME280;48597;49.030;1.822;2024-02-23T09:01:20;98550.94;;;17.04;46.83
62544;BME280;48597;49.030;1.822;2024-02-23T09:03:45;98541.91;;;17.06;46.77
62544;BME280;48597;49.030;1.822;2024-02-23T09:06:11;98547.91;;;17.08;46.88
62544;BME280;48597;49.030;1.822;2024-02-23T09:08:36;98549.47;;;17.09;46.85
62544;BME280;48597;49.030;1.822;2024-02-23T09:11:01;98547.72;;;17.11;46.46
62544;BME280;48597;49.030;1.822;2024-02-23T09:13:27;98543.09;;;17.14;46.29
62544;BME280;48597;49.030;1.822;2024-02-23T09:15:55;98534.56;;;17.14;46.31
62544;BME280;48597;49.030;1.822;2024-02-23T09:18:20;98543.09;;;17.14;46.35
62544;BME280;48597;49.030;1.822;2024-02-23T09:20:45;98544.97;;;17.17;46.43
62544;BME280;48597;49.030;1.822;2024-02-23T09:23:11;98544.47;;;17.19;46.35
62544;BME280;48597;49.030;1.822;2024-02-23T09:25:37;98542.72;;;17.21;46.48
62544;BME280;48597;49.030;1.822;2024-02-23T09:28:03;98546.66;;;17.24;46.64
62544;BME280;48597;49.030;1.822;2024-02-23T09:30:28;98544.59;;;17.24;46.53
62544;BME280;48597;49.030;1.822;2024-02-23T09:32:53;98534.78;;;17.25;46.75
62544;BME280;48597;49.030;1.822;2024-02-23T09:35:19;98538.50;;;17.31;46.51
62544;BME280;48597;49.030;1.822;2024-02-23T09:37:45;98539.59;;;17.34;46.74
62544;BME280;48597;49.030;1.822;2024-02-23T09:40:10;98547.97;;;17.37;46.79
62544;BME280;48597;49.030;1.822;2024-02-23T09:42:36;98551.09;;;17.39;46.79
62544;BME280;48597;49.030;1.822;2024-02-23T09:45:04;98558.16;;;17.44;46.77
62544;BME280;48597;49.030;1.822;2024-02-23T09:47:31;98556.41;;;17.46;46.48
62544;BME280;48597;49.030;1.822;2024-02-23T09:49:56;98561.13;;;17.49;46.16
62544;BME280;48597;49.030;1.822;2024-02-23T09:52:22;98557.31;;;17.53;46.68
62544;BME280;48597;49.030;1.822;2024-02-23T09:54:48;98560.91;;;17.53;46.74
62544;BME280;48597;49.030;1.822;2024-02-23T09:57:14;98560.72;;;17.57;46.74
62544;BME280;48597;49.030;1.822;2024-02-23T09:59:41;98562.91;;;17.62;46.69
62544;BME280;48597;49.030;1.822;2024-02-23T10:02:14;98566.63;;;17.68;46.41
62544;BME280;48597;49.030;1.822;2024-02-23T10:04:40;98566.84;;;17.64;46.50
62544;BME280;48597;49.030;1.822;2024-02-23T10:07:08;98565.06;;;17.67;46.62
62544;BME280;48597;49.030;1.822;2024-02-23T10:09:33;98559.66;;;17.69;46.92
62544;BME280;48597;49.030;1.822;2024-02-23T10:11:59;98556.75;;;17.78;46.64
62544;BME280;48597;49.030;1.822;2024-02-23T10:14:24;98559.66;;;17.83;46.57
62544;BME280;48597;49.030;1.822;2024-02-23T10:16:50;98554.75;;;17.84;46.60
62544;BME280;48597;49.030;1.822;2024-02-23T10:19:19;98565.47;;;17.89;46.55
62544;BME280;48597;49.030;1.822;2024-02-23T10:21:45;98560.25;;;17.88;46.69
62544;BME280;48597;49.030;1.822;2024-02-23T10:24:10;98561.34;;;17.90;47.02
62544;BME280;48597;49.030;1.822;2024-02-23T10:26:36;98557.78;;;17.95;46.57
62544;BME280;48597;49.030;1.822;2024-02-23T10:29:01;98564.88;;;18.00;46.62
62544;BME280;48597;49.030;1.822;2024-02-23T10:31:28;98577.34;;;18.02;46.53
62544;BME280;48597;49.030;1.822;2024-02-23T10:33:54;98567.53;;;18.03;46.61
62544;BME280;48597;49.030;1.822;2024-02-23T10:36:23;98560.81;;;18.06;46.60
62544;BME280;48597;49.030;1.822;2024-02-23T10:38:54;98556.97;;;18.09;46.65
62544;BME280;48597;49.030;1.822;2024-02-23T10:41:22;98561.41;;;18.10;46.52
62544;BME280;48597;49.030;1.822;2024-02-23T10:43:48;98560.91;;;18.12;46.67
62544;BME280;48597;49.030;1.822;2024-02-23T10:46:14;98556.78;;;18.13;46.77
62544;BME280;48597;49.030;1.822;2024-02-23T10:48:44;98561.69;;;18.12;46.97
62544;BME280;48597;49.030;1.822;2024-02-23T10:51:12;98552.06;;;18.10;47.04
62544;BME280;48597;49.030;1.822;2024-02-23T10:53:39;98562.69;;;18.09;47.18
62544;BME280;48597;49.030;1.822;2024-02-23T10:56:06;98569.16;;;18.10;47.11
62544;BME280;48597;49.030;1.822;2024-02-23T10:58:32;98568.69;;;18.11;47.11
62544;BME280;48597;49.030;1.822;2024-02-23T11:01:00;98567.41;;;18.12;47.12
62544;BME280;48597;49.030;1.822;2024-02-23T11:03:30;98566.13;;;18.13;47.04
62544;BME280;48597;49.030;1.822;2024-02-23T11:05:56;98566.13;;;18.13;47.09
62544;BME280;48597;49.030;1.822;2024-02-23T11:08:21;98553.44;;;18.14;47.03
62544;BME280;48597;49.030;1.822;2024-02-23T11:10:50;98564.84;;;18.14;47.17
62544;BME280;48597;49.030;1.822;2024-02-23T11:13:30;98572.91;;;18.16;46.76
62544;BME280;48597;49.030;1.822;2024-02-23T11:16:04;98571.63;;;18.17;46.84
62544;BME280;48597;49.030;1.822;2024-02-23T11:18:30;98572.13;;;18.15;47.05
62544;BME280;48597;49.030;1.822;2024-02-23T11:21:02;98576.03;;;18.18;47.03
62544;BME280;48597;49.030;1.822;2024-02-23T11:23:47;98576.03;;;18.18;47.07
62544;BME280;48597;49.030;1.822;2024-02-23T11:26:16;98577.59;;;18.19;47.29
62544;BME280;48597;49.030;1.822;2024-02-23T11:28:49;98568.56;;;18.20;47.15
62544;BME280;48597;49.030;1.822;2024-02-23T11:31:15;98566.97;;;18.19;47.11
62544;BME280;48597;49.030;1.822;2024-02-23T11:33:54;98573.75;;;18.22;47.38
62544;BME280;48597;49.030;1.822;2024-02-23T11:36:30;98571.69;;;18.23;47.23
62544;BME280;48597;49.030;1.822;2024-02-23T11:38:59;98577.88;;;18.21;47.37
62544;BME280;48597;49.030;1.822;2024-02-23T11:41:26;98568.84;;;18.23;47.28
62544;BME280;48597;49.030;1.822;2024-02-23T11:43:53;98568.84;;;18.23;47.12
62544;BME280;48597;49.030;1.822;2024-02-23T11:46:19;98565.22;;;18.22;47.29
62544;BME280;48597;49.030;1.822;2024-02-23T11:48:45;98568.06;;;18.22;47.14
62544;BME280;48597;49.030;1.822;2024-02-23T11:51:13;98568.84;;;18.23;47.02
62544;BME280;48597;49.030;1.822;2024-02-23T11:53:39;98563.44;;;18.25;47.25
62544;BME280;48597;49.030;1.822;2024-02-23T11:56:05;98553.31;;;18.24;47.27
62544;BME280;48597;49.030;1.822;2024-02-23T11:58:32;98542.50;;;18.28;47.47
62544;BME280;48597;49.030;1.822;2024-02-23T12:00:58;98543.78;;;18.27;47.14
62544;BME280;48597;49.030;1.822;2024-02-23T12:03:26;98537.28;;;18.26;47.22
62544;BME280;48597;49.030;1.822;2024-02-23T12:05:51;98540.44;;;18.28;47.36
62544;BME280;48597;49.030;1.822;2024-02-23T12:08:17;98533.44;;;18.29;47.30
62544;BME280;48597;49.030;1.822;2024-02-23T12:10:43;98522.03;;;18.29;47.38
62544;BME280;48597;49.030;1.822;2024-02-23T12:13:09;98532.16;;;18.30;47.15
62544;BME280;48597;49.030;1.822;2024-02-23T12:15:34;98525.94;;;18.32;47.15
62544;BME280;48597;49.030;1.822;2024-02-23T12:17:59;98523.09;;;18.32;47.14
62544;BME280;48597;49.030;1.822;2024-02-23T12:20:28;98515.13;;;18.36;47.81
62544;BME280;48597;49.030;1.822;2024-02-23T12:22:56;98509.50;;;18.41;47.82
62544;BME280;48597;49.030;1.822;2024-02-23T12:25:21;98502.00;;;18.44;47.68
62544;BME280;48597;49.030;1.822;2024-02-23T12:27:54;98508.28;;;18.48;47.58
62544;BME280;48597;49.030;1.822;2024-02-23T12:30:19;98504.16;;;18.49;47.66
62544;BME280;48597;49.030;1.822;2024-02-23T12:32:44;98484.97;;;18.49;47.67
62544;BME280;48597;49.030;1.822;2024-02-23T12:35:14;98490.66;;;18.49;47.69
62544;BME280;48597;49.030;1.822;2024-02-23T12:37:40;98480.03;;;18.50;47.74
62544;BME280;48597;49.030;1.822;2024-02-23T12:40:07;98477.47;;;18.52;47.83
62544;BME280;48597;49.030;1.822;2024-02-23T12:42:32;98479.59;;;18.57;47.72
62544;BME280;48597;49.030;1.822;2024-02-23T12:44:57;98471.84;;;18.57;47.71
62544;BME280;48597;49.030;1.822;2024-02-23T12:47:23;98482.78;;;18.59;47.76
62544;BME280;48597;49.030;1.822;2024-02-23T12:49:48;98471.66;;;18.61;47.78
62544;BME280;48597;49.030;1.822;2024-02-23T12:52:14;98479.22;;;18.64;48.09
62544;BME280;48597;49.030;1.822;2024-02-23T12:54:39;98475.88;;;18.66;48.03
62544;BME280;48597;49.030;1.822;2024-02-23T12:57:04;98479.00;;;18.68;48.21
62544;BME280;48597;49.030;1.822;2024-02-23T12:59:30;98471.50;;;18.70;47.92
62544;BME280;48597;49.030;1.822;2024-02-23T13:01:55;98472.56;;;18.73;47.91
62544;BME280;48597;49.030;1.822;2024-02-23T13:04:21;98472.84;;;18.75;47.92
62544;BME280;48597;49.030;1.822;2024-02-23T13:06:46;98477.28;;;18.76;47.79
62544;BME280;48597;49.030;1.822;2024-02-23T13:09:12;98462.50;;;18.77;47.82
62544;BME280;48597;49.030;1.822;2024-02-23T13:11:39;98454.25;;;18.79;47.77
62544;BME280;48597;49.030;1.822;2024-02-23T13:14:05;98461.22;;;18.78;47.77
62544;BME280;48597;49.030;1.822;2024-02-23T13:16:30;98442.53;;;18.77;47.57
62544;BME280;48597;49.030;1.822;2024-02-23T13:18:55;98447.47;;;18.77;47.67
62544;BME280;48597;49.030;1.822;2024-02-23T13:21:21;98443.81;;;18.76;47.51
62544;BME280;48597;49.030;1.822;2024-02-23T13:23:46;98439.97;;;18.79;47.40
62544;BME280;48597;49.030;1.822;2024-02-23T13:26:11;98435.84;;;18.80;47.22
62544;BME280;48597;49.030;1.822;2024-02-23T13:28:41;98433.28;;;18.82;47.39
62544;BME280;48597;49.030;1.822;2024-02-23T13:31:06;98420.53;;;18.83;47.46
62544;BME280;48597;49.030;1.822;2024-02-23T13:33:32;98410.69;;;18.84;47.70
62544;BME280;48597;49.030;1.822;2024-02-23T13:35:57;98404.97;;;18.84;47.41
62544;BME280;48597;49.030;1.822;2024-02-23T13:38:24;98415.91;;;18.86;47.29
62544;BME280;48597;49.030;1.822;2024-02-23T13:40:49;98415.41;;;18.87;47.03
62544;BME280;48597;49.030;1.822;2024-02-23T13:43:15;98405.28;;;18.86;47.13
62544;BME280;48597;49.030;1.822;2024-02-23T13:45:51;98407.13;;;18.89;47.23
62544;BME280;48597;49.030;1.822;2024-02-23T13:48:17;98402.19;;;18.90;47.38
62544;BME280;48597;49.030;1.822;2024-02-23T13:50:44;98395.72;;;18.89;47.29
62544;BME280;48597;49.030;1.822;2024-02-23T13:53:09;98400.63;;;18.89;47.49
62544;BME280;48597;49.030;1.822;2024-02-23T13:55:35;98394.63;;;18.87;47.60
62544;BME280;48597;49.030;1.822;2024-02-23T13:58:01;98391.78;;;18.87;47.50
62544;BME280;48597;49.030;1.822;2024-02-23T14:00:26;98389.72;;;18.87;47.43
62544;BME280;48597;49.030;1.822;2024-02-23T14:02:51;98398.28;;;18.87;47.64
62544;BME280;48597;49.030;1.822;2024-02-23T14:05:17;98384.00;;;18.87;47.55
62544;BME280;48597;49.030;1.822;2024-02-23T14:07:43;98380.16;;;18.90;47.58
62544;BME280;48597;49.030;1.822;2024-02-23T14:10:09;98386.13;;;18.92;47.55
62544;BME280;48597;49.030;1.822;2024-02-23T14:12:34;98382.50;;;18.92;47.53
62544;BME280;48597;49.030;1.822;2024-02-23T14:15:00;98382.22;;;18.90;47.17
62544;BME280;48597;49.030;1.822;2024-02-23T14:17:25;98415.41;;;18.87;47.35
62544;BME280;48597;49.030;1.822;2024-02-23T14:19:50;98435.66;;;18.89;47.62
62544;BME280;48597;49.030;1.822;2024-02-23T14:22:16;98422.97;;;18.90;47.47
62544;BME280;48597;49.030;1.822;2024-02-23T14:24:42;98424.25;;;18.89;47.58
62544;BME280;48597;49.030;1.822;2024-02-23T14:27:07;98426.81;;;18.87;47.58
62544;BME280;48597;49.030;1.822;2024-02-23T14:29:33;98420.31;;;18.87;47.60
62544;BME280;48597;49.030;1.822;2024-02-23T14:31:59;98422.69;;;18.88;47.57
62544;BME280;48597;49.030;1.822;2024-02-23T14:34:25;98414.63;;;18.87;47.71
62544;BME280;48597;49.030;1.822;2024-02-23T14:36:50;98421.09;;;18.87;47.60
62544;BME280;48597;49.030;1.822;2024-02-23T14:39:15;98408.63;;;18.85;47.64
62544;BME280;48597;49.030;1.822;2024-02-23T14:41:41;98408.91;;;18.87;47.51
62544;BME280;48597;49.030;1.822;2024-02-23T14:44:08;98408.13;;;18.86;47.43
62544;BME280;48597;49.030;1.822;2024-02-23T14:46:33;98407.34;;;18.86;47.45
62544;BME280;48597;49.030;1.822;2024-02-23T14:48:58;98407.06;;;18.84;47.46
62544;BME280;48597;49.030;1.822;2024-02-23T14:51:24;98407.06;;;18.84;47.62
62544;BME280;48597;49.030;1.822;2024-02-23T14:53:49;98398.50;;;18.84;47.69
62544;BME280;48597;49.030;1.822;2024-02-23T14:56:14;98391.50;;;18.85;47.46
62544;BME280;48597;49.030;1.822;2024-02-23T14:58:40;98387.06;;;18.84;47.58
62544;BME280;48597;49.030;1.822;2024-02-23T15:01:06;98376.44;;;18.84;47.51
62544;BME280;48597;49.030;1.822;2024-02-23T15:03:31;98389.44;;;18.85;47.62
62544;BME280;48597;49.030;1.822;2024-02-23T15:05:58;98384.50;;;18.86;47.46
62544;BME280;48597;49.030;1.822;2024-02-23T15:08:23;98387.84;;;18.84;47.49
62544;BME280;48597;49.030;1.822;2024-02-23T15:10:48;98384.22;;;18.84;47.68
62544;BME280;48597;49.030;1.822;2024-02-23T15:13:14;98386.28;;;18.83;47.46
62544;BME280;48597;49.030;1.822;2024-02-23T15:15:39;98388.63;;;18.85;47.42
62544;BME280;48597;49.030;1.822;2024-02-23T15:18:06;98376.44;;;18.84;47.55
62544;BME280;48597;49.030;1.822;2024-02-23T15:33:11;98358.00;;;19.11;46.86
62544;BME280;48597;49.030;1.822;2024-02-23T15:35:37;98365.97;;;19.02;46.92
62544;BME280;48597;49.030;1.822;2024-02-23T15:38:02;98360.19;;;18.96;47.12
62544;BME280;48597;49.030;1.822;2024-02-23T15:40:28;98358.88;;;18.91;47.04
62544;BME280;48597;49.030;1.822;2024-02-23T15:42:53;98367.94;;;18.90;47.17
62544;BME280;48597;49.030;1.822;2024-02-23T15:45:19;98358.31;;;18.87;47.39
62544;BME280;48597;49.030;1.822;2024-02-23T15:47:44;98359.59;;;18.86;47.06
62544;BME280;48597;49.030;1.822;2024-02-23T15:50:09;98363.75;;;18.85;47.04
62544;BME280;48597;49.030;1.822;2024-02-23T15:52:36;98365.03;;;18.84;47.18
62544;BME280;48597;49.030;1.822;2024-02-23T15:55:02;98372.81;;;18.84;47.42
62544;BME280;48597;49.030;1.822;2024-02-23T15:57:27;98382.66;;;18.83;47.64
62544;BME280;48597;49.030;1.822;2024-02-23T15:59:53;98383.97;;;18.82;47.82
62544;BME280;48597;49.030;1.822;2024-02-23T16:02:19;98381.09;;;18.82;47.51
62544;BME280;48597;49.030;1.822;2024-02-23T16:04:44;98385.50;;;18.83;47.63
62544;BME280;48597;49.030;1.822;2024-02-23T16:07:09;98381.09;;;18.82;47.74
62544;BME280;48597;49.030;1.822;2024-02-23T16:09:35;98383.19;;;18.81;47.66
62544;BME280;48597;49.030;1.822;2024-02-23T16:12:00;98385.25;;;18.81;47.80
62544;BME280;48597;49.030;1.822;2024-02-23T16:14:26;98397.16;;;18.79;47.79
62544;BME280;48597;49.030;1.822;2024-02-23T16:16:51;98392.25;;;18.80;47.56
62544;BME280;48597;49.030;1.822;2024-02-23T16:19:18;98379.25;;;18.79;47.81
62544;BME280;48597;49.030;1.822;2024-02-23T16:21:43;98385.47;;;18.77;47.48
62544;BME280;48597;49.030;1.822;2024-02-23T16:24:11;98376.13;;;18.77;47.63
62544;BME280;48597;49.030;1.822;2024-02-23T16:26:36;98386.75;;;18.76;47.50
62544;BME280;48597;49.030;1.822;2024-02-23T16:29:05;98376.13;;;18.77;47.60
62544;BME280;48597;49.030;1.822;2024-02-23T16:31:33;98381.81;;;18.77;47.70
62544;BME280;48597;49.030;1.822;2024-02-23T16:33:59;98377.41;;;18.76;47.61
62544;BME280;48597;49.030;1.822;2024-02-23T16:36:24;98376.63;;;18.75;47.69
62544;BME280;48597;49.030;1.822;2024-02-23T16:38:49;98383.91;;;18.76;47.62
62544;BME280;48597;49.030;1.822;2024-02-23T16:41:15;98380.25;;;18.76;48.11
62544;BME280;48597;49.030;1.822;2024-02-23T16:43:40;98380.75;;;18.74;47.94
62544;BME280;48597;49.030;1.822;2024-02-23T16:46:06;98374.25;;;18.74;47.84
62544;BME280;48597;49.030;1.822;2024-02-23T16:48:31;98378.41;;;18.73;48.14
62544;BME280;48597;49.030;1.822;2024-02-23T16:50:57;98376.34;;;18.73;48.25
62544;BME280;48597;49.030;1.822;2024-02-23T16:53:23;98378.41;;;18.73;48.12
62544;BME280;48597;49.030;1.822;2024-02-23T16:55:48;98378.41;;;18.73;48.15
62544;BME280;48597;49.030;1.822;2024-02-23T16:58:14;98384.91;;;18.73;48.03
62544;BME280;48597;49.030;1.822;2024-02-23T17:00:39;98379.19;;;18.73;48.12
62544;BME280;48597;49.030;1.822;2024-02-23T17:03:05;98390.88;;;18.75;48.11
62544;BME280;48597;49.030;1.822;2024-02-23T17:05:31;98396.59;;;18.75;47.98
62544;BME280;48597;49.030;1.822;2024-02-23T17:07:57;98399.94;;;18.74;47.99
62544;BME280;48597;49.030;1.822;2024-02-23T17:10:22;98393.47;;;18.73;47.91
62544;BME280;48597;49.030;1.822;2024-02-23T17:12:48;98392.16;;;18.74;48.14
62544;BME280;48597;49.030;1.822;2024-02-23T17:15:17;98391.16;;;18.77;48.28
62544;BME280;48597;49.030;1.822;2024-02-23T17:17:42;98405.22;;;18.81;48.40
62544;BME280;48597;49.030;1.822;2024-02-23T17:20:08;98403.16;;;18.81;48.34
62544;BME280;48597;49.030;1.822;2024-02-23T17:22:33;98401.34;;;18.84;48.43
62544;BME280;48597;49.030;1.822;2024-02-23T17:24:59;98398.50;;;18.84;48.25
62544;BME280;48597;49.030;1.822;2024-02-23T17:27:24;98406.56;;;18.85;48.33
62544;BME280;48597;49.030;1.822;2024-02-23T17:29:50;98408.91;;;18.87;48.16
62544;BME280;48597;49.030;1.822;2024-02-23T17:32:15;98419.31;;;18.90;48.00
62544;BME280;48597;49.030;1.822;2024-02-23T17:34:41;98408.69;;;18.90;48.00
62544;BME280;48597;49.030;1.822;2024-02-23T17:37:06;98410.25;;;18.91;47.93
62544;BME280;48597;49.030;1.822;2024-02-23T17:39:32;98402.19;;;18.90;47.95
62544;BME280;48597;49.030;1.822;2024-02-23T17:41:58;98407.41;;;18.91;47.98
62544;BME280;48597;49.030;1.822;2024-02-23T17:44:24;98414.19;;;18.94;48.06
62544;BME280;48597;49.030;1.822;2024-02-23T17:46:53;98411.34;;;18.94;47.91
62544;BME280;48597;49.030;1.822;2024-02-23T17:49:19;98412.13;;;18.95;47.88
62544;BME280;48597;49.030;1.822;2024-02-23T17:51:44;98413.66;;;18.96;47.84
62544;BME280;48597;49.030;1.822;2024-02-23T17:54:10;98414.44;;;18.96;47.69
62544;BME280;48597;49.030;1.822;2024-02-23T17:56:35;98410.53;;;18.94;47.71
62544;BME280;48597;49.030;1.822;2024-02-23T17:59:01;98419.91;;;18.94;47.64
62544;BME280;48597;49.030;1.822;2024-02-23T18:01:26;98418.81;;;18.91;47.85
62544;BME280;48597;49.030;1.822;2024-02-23T18:03:52;98421.97;;;18.94;47.75
62544;BME280;48597;49.030;1.822;2024-02-23T18:06:18;98419.09;;;18.94;47.86
62544;BME280;48597;49.030;1.822;2024-02-23T18:08:45;98425.59;;;18.94;47.62
62544;BME280;48597;49.030;1.822;2024-02-23T18:11:11;98423.53;;;18.95;47.72
62544;BME280;48597;49.030;1.822;2024-02-23T18:13:36;98425.59;;;18.94;47.61
62544;BME280;48597;49.030;1.822;2024-02-23T18:16:07;98426.66;;;18.97;47.57
62544;BME280;48597;49.030;1.822;2024-02-23T18:18:35;98430.28;;;18.97;47.46
62544;BME280;48597;49.030;1.822;2024-02-23T18:21:00;98433.13;;;18.97;47.56
62544;BME280;48597;49.030;1.822;2024-02-23T18:23:26;98435.22;;;18.97;47.56
62544;BME280;48597;49.030;1.822;2024-02-23T18:25:51;98445.84;;;18.96;47.49
62544;BME280;48597;49.030;1.822;2024-02-23T18:28:16;98450.25;;;18.97;47.46
62544;BME280;48597;49.030;1.822;2024-02-23T18:30:42;98442.50;;;18.98;47.43
62544;BME280;48597;49.030;1.822;2024-02-23T18:33:07;98454.41;;;18.96;47.42
62544;BME280;48597;49.030;1.822;2024-02-23T18:35:33;98446.38;;;18.95;47.39
62544;BME280;48597;49.030;1.822;2024-02-23T18:37:58;98459.31;;;18.96;47.32
62544;BME280;48597;49.030;1.822;2024-02-23T18:40:23;98461.44;;;18.95;47.26
62544;BME280;48597;49.030;1.822;2024-02-23T18:42:49;98466.34;;;18.95;46.96
62544;BME280;48597;49.030;1.822;2024-02-23T18:45:15;98464.78;;;18.94;47.12
62544;BME280;48597;49.030;1.822;2024-02-23T18:47:44;98463.22;;;18.92;47.26
62544;BME280;48597;49.030;1.822;2024-02-23T18:50:09;98463.22;;;18.92;47.30
62544;BME280;48597;49.030;1.822;2024-02-23T18:52:35;98468.91;;;18.92;47.25
62544;BME280;48597;49.030;1.822;2024-02-23T18:55:00;98479.56;;;18.92;47.30
62544;BME280;48597;49.030;1.822;2024-02-23T18:57:26;98476.69;;;18.92;47.29
62544;BME280;48597;49.030;1.822;2024-02-23T18:59:52;98475.91;;;18.91;47.13
62544;BME280;48597;49.030;1.822;2024-02-23T19:02:17;98479.56;;;18.92;47.19
62544;BME280;48597;49.030;1.822;2024-02-23T19:04:42;98480.06;;;18.90;47.23
62544;BME280;48597;49.030;1.822;2024-02-23T19:07:08;98488.63;;;18.90;47.20
62544;BME280;48597;49.030;1.822;2024-02-23T19:09:33;98482.91;;;18.90;47.11
62544;BME280;48597;49.030;1.822;2024-02-23T19:11:58;98483.69;;;18.91;47.11
62544;BME280;48597;49.030;1.822;2024-02-23T19:14:26;98477.19;;;18.90;47.02
62544;BME280;48597;49.030;1.822;2024-02-23T19:16:52;98485.75;;;18.90;47.02
62544;BME280;48597;49.030;1.822;2024-02-23T19:19:17;98484.19;;;18.89;47.05
62544;BME280;48597;49.030;1.822;2024-02-23T19:21:42;98483.41;;;18.89;46.97
62544;BME280;48597;49.030;1.822;2024-02-23T19:24:08;98481.84;;;18.88;46.95
62544;BME280;48597;49.030;1.822;2024-02-23T19:26:34;98489.13;;;18.89;46.85
62544;BME280;48597;49.030;1.822;2024-02-23T19:28:59;98486.25;;;18.89;46.95
62544;BME280;48597;49.030;1.822;2024-02-23T19:31:24;98486.75;;;18.87;46.87
62544;BME280;48597;49.030;1.822;2024-02-23T19:33:51;98494.03;;;18.88;46.76
62544;BME280;48597;49.030;1.822;2024-02-23T19:36:18;98481.06;;;18.87;46.78
62544;BME280;48597;49.030;1.822;2024-02-23T19:38:43;98482.84;;;18.85;46.81
62544;BME280;48597;49.030;1.822;2024-02-23T19:41:12;98490.09;;;18.86;47.06
62544;BME280;48597;49.030;1.822;2024-02-23T19:43:37;98488.53;;;18.85;46.73
62544;BME280;48597;49.030;1.822;2024-02-23T19:46:03;98493.47;;;18.84;46.73
62544;BME280;48597;49.030;1.822;2024-02-23T19:48:28;98491.38;;;18.85;46.83
62544;BME280;48597;49.030;1.822;2024-02-23T19:50:54;98496.31;;;18.84;46.82
62544;BME280;48597;49.030;1.822;2024-02-23T19:53:19;98491.09;;;18.83;46.83
62544;BME280;48597;49.030;1.822;2024-02-23T19:55:46;98494.75;;;18.83;46.81